createdAt,value
2017-11-18T00:00:29.896Z,7.20
2017-11-18T00:01:29.870Z,7.30
2017-11-18T00:02:29.846Z,7.70
2017-11-18T00:03:29.820Z,9.10
2017-11-18T00:04:29.794Z,7.50
2017-11-18T00:05:29.771Z,7.60
2017-11-18T00:06:29.746Z,7.30
2017-11-18T00:07:29.721Z,8.40
2017-11-18T00:08:29.694Z,8.20
2017-11-18T00:09:29.673Z,7.80
2017-11-18T00:10:29.646Z,7.40
2017-11-18T00:11:29.623Z,8.20
2017-11-18T00:12:29.597Z,8.20
2017-11-18T00:13:29.571Z,8.30
2017-11-18T00:14:29.553Z,8.00
2017-11-18T00:15:29.521Z,7.50
2017-11-18T00:16:29.496Z,7.40
2017-11-18T00:17:29.471Z,7.50
2017-11-18T00:18:29.445Z,7.30
2017-11-18T00:19:29.422Z,7.00
2017-11-18T00:20:29.397Z,9.80
2017-11-18T00:21:29.373Z,7.50
2017-11-18T00:22:29.350Z,8.20
2017-11-18T00:23:29.322Z,7.40
2017-11-18T00:24:29.298Z,7.60
2017-11-18T00:25:29.279Z,7.40
2017-11-18T00:26:29.247Z,7.50
2017-11-18T00:27:29.223Z,7.20
2017-11-18T00:28:29.196Z,7.40
2017-11-18T00:29:29.171Z,8.70
2017-11-18T00:30:29.146Z,7.80
2017-11-18T00:31:29.122Z,8.10
2017-11-18T00:32:29.097Z,8.00
2017-11-18T00:33:29.074Z,7.60
2017-11-18T00:34:29.047Z,7.70
2017-11-18T00:35:29.023Z,7.30
2017-11-18T00:36:28.997Z,7.10
2017-11-18T00:37:28.973Z,8.10
2017-11-18T00:38:28.947Z,7.50
2017-11-18T00:39:28.923Z,7.60
2017-11-18T00:40:28.897Z,7.70
2017-11-18T00:41:28.871Z,7.70
2017-11-18T00:42:28.844Z,9.50
2017-11-18T00:43:28.824Z,7.50
2017-11-18T00:44:28.797Z,8.20
2017-11-18T00:45:28.772Z,8.40
2017-11-18T00:46:28.747Z,7.80
2017-11-18T00:47:28.722Z,7.60
2017-11-18T00:48:28.696Z,8.10
2017-11-18T00:49:28.671Z,7.60
2017-11-18T00:50:28.647Z,8.30
2017-11-18T00:51:28.622Z,7.70
2017-11-18T00:52:28.597Z,7.90
2017-11-18T00:53:28.571Z,8.20
2017-11-18T00:54:28.547Z,8.40
2017-11-18T00:55:28.522Z,7.90
2017-11-18T00:56:28.495Z,8.50
2017-11-18T00:57:28.472Z,8.10
2017-11-18T00:58:28.445Z,7.90
2017-11-18T00:59:28.421Z,8.20
2017-11-18T01:00:28.394Z,8.10
2017-11-18T01:01:28.379Z,8.70
2017-11-18T01:02:28.345Z,7.60
2017-11-18T01:03:28.337Z,7.60
2017-11-18T01:04:28.295Z,8.50
2017-11-18T01:05:28.270Z,7.80
2017-11-18T01:06:28.245Z,7.50
2017-11-18T01:07:28.220Z,7.90
2017-11-18T01:08:28.194Z,7.80
2017-11-18T01:09:28.167Z,8.00
2017-11-18T01:10:28.143Z,7.80
2017-11-18T01:11:28.119Z,7.20
2017-11-18T01:12:28.093Z,7.70
2017-11-18T01:13:28.068Z,6.90
2017-11-18T01:14:28.042Z,7.50
2017-11-18T01:15:28.018Z,8.10
2017-11-18T01:16:27.991Z,7.30
2017-11-18T01:17:27.967Z,7.70
2017-11-18T01:18:27.940Z,7.20
2017-11-18T01:19:27.920Z,7.40
2017-11-18T01:20:27.893Z,6.90
2017-11-18T01:21:27.865Z,6.40
2017-11-18T01:22:27.841Z,7.40
2017-11-18T01:23:27.816Z,7.50
2017-11-18T01:24:27.789Z,6.60
2017-11-18T01:25:27.765Z,7.10
2017-11-18T01:26:27.745Z,7.80
2017-11-18T01:27:27.714Z,7.10
2017-11-18T01:28:27.688Z,6.90
2017-11-18T01:29:27.666Z,7.40
2017-11-18T01:30:27.638Z,6.30
2017-11-18T01:31:27.614Z,7.10
2017-11-18T01:32:27.588Z,7.00
2017-11-18T01:33:27.564Z,6.60
2017-11-18T01:34:27.538Z,7.50
2017-11-18T01:35:27.514Z,7.70
2017-11-18T01:36:27.487Z,6.70
2017-11-18T01:37:27.464Z,6.80
2017-11-18T01:38:27.439Z,7.00
2017-11-18T01:39:27.412Z,7.10
2017-11-18T01:40:27.387Z,7.20
2017-11-18T01:41:27.364Z,7.10
2017-11-18T01:42:27.338Z,7.10
2017-11-18T01:43:27.314Z,7.20
2017-11-18T01:44:27.287Z,6.80
2017-11-18T01:45:27.263Z,6.70
2017-11-18T01:46:27.245Z,6.70
2017-11-18T01:47:27.222Z,6.90
2017-11-18T01:48:27.191Z,6.90
2017-11-18T01:49:27.168Z,6.90
2017-11-18T01:50:27.139Z,6.00
2017-11-18T01:51:27.114Z,7.20
2017-11-18T01:52:27.089Z,6.90
2017-11-18T01:53:27.064Z,7.60
2017-11-18T01:54:27.040Z,6.70
2017-11-18T01:55:27.015Z,6.80
2017-11-18T01:56:26.989Z,6.70
2017-11-18T01:57:26.970Z,6.40
2017-11-18T01:58:26.943Z,6.60
2017-11-18T01:59:26.917Z,6.50
2017-11-18T02:00:26.895Z,6.60
2017-11-18T02:01:26.867Z,7.10
2017-11-18T02:02:26.842Z,6.40
2017-11-18T02:03:26.819Z,6.30
2017-11-18T02:04:26.793Z,6.60
2017-11-18T02:05:26.767Z,7.00
2017-11-18T02:06:26.742Z,6.80
2017-11-18T02:07:26.717Z,6.60
2017-11-18T02:08:26.693Z,6.00
2017-11-18T02:09:26.669Z,6.50
2017-11-18T02:10:26.644Z,6.20
2017-11-18T02:11:26.620Z,6.70
2017-11-18T02:12:26.594Z,6.90
2017-11-18T02:13:26.571Z,6.30
2017-11-18T02:14:26.546Z,6.60
2017-11-18T02:15:26.529Z,6.00
2017-11-18T02:16:26.495Z,6.20
2017-11-18T02:17:26.471Z,6.20
2017-11-18T02:18:26.450Z,5.70
2017-11-18T02:19:26.421Z,5.90
2017-11-18T02:20:26.398Z,5.80
2017-11-18T02:21:26.373Z,6.30
2017-11-18T02:22:26.354Z,6.10
2017-11-18T02:23:26.325Z,5.60
2017-11-18T02:24:26.299Z,6.30
2017-11-18T02:25:26.274Z,6.40
2017-11-18T02:26:26.250Z,5.60
2017-11-18T02:27:26.223Z,6.20
2017-11-18T02:28:26.202Z,6.00
2017-11-18T02:29:26.177Z,6.60
2017-11-18T02:30:26.152Z,5.80
2017-11-18T02:31:26.127Z,5.80
2017-11-18T02:32:26.103Z,5.90
2017-11-18T02:33:26.077Z,6.40
2017-11-18T02:34:26.053Z,6.50
2017-11-18T02:35:26.033Z,6.10
2017-11-18T02:36:26.005Z,6.00
2017-11-18T02:37:25.980Z,5.50
2017-11-18T02:38:25.955Z,6.00
2017-11-18T02:39:25.938Z,6.10
2017-11-18T02:40:25.909Z,5.90
2017-11-18T02:41:25.881Z,6.10
2017-11-18T02:42:25.857Z,6.00
2017-11-18T02:43:25.834Z,6.60
2017-11-18T02:44:25.806Z,6.20
2017-11-18T02:45:25.796Z,5.90
2017-11-18T02:46:25.760Z,5.30
2017-11-18T02:47:25.736Z,5.60
2017-11-18T02:48:25.708Z,6.10
2017-11-18T02:49:25.688Z,7.50
2017-11-18T02:50:25.663Z,6.70
2017-11-18T02:51:25.639Z,6.00
2017-11-18T02:52:25.610Z,5.80
2017-11-18T02:53:25.588Z,6.20
2017-11-18T02:54:25.564Z,6.40
2017-11-18T02:55:25.538Z,6.00
2017-11-18T02:56:25.512Z,6.00
2017-11-18T02:57:25.489Z,6.10
2017-11-18T02:58:25.464Z,6.20
2017-11-18T02:59:25.439Z,5.40
2017-11-18T03:00:25.415Z,5.60
2017-11-18T03:01:25.389Z,5.70
2017-11-18T03:02:25.367Z,6.10
2017-11-18T03:03:25.344Z,6.00
2017-11-18T03:04:25.315Z,5.70
2017-11-18T03:05:25.291Z,6.40
2017-11-18T03:06:25.267Z,5.70
2017-11-18T03:07:25.244Z,5.70
2017-11-18T03:08:25.217Z,5.80
2017-11-18T03:09:25.194Z,6.00
2017-11-18T03:10:25.172Z,6.50
2017-11-18T03:11:25.146Z,5.30
2017-11-18T03:12:25.121Z,6.50
2017-11-18T03:13:25.095Z,5.80
2017-11-18T03:14:25.076Z,5.80
2017-11-18T03:15:25.048Z,5.10
2017-11-18T03:16:25.023Z,6.10
2017-11-18T03:17:24.997Z,6.40
2017-11-18T03:18:24.973Z,6.20
2017-11-18T03:19:24.948Z,6.00
2017-11-18T03:20:24.926Z,6.00
2017-11-18T03:21:24.899Z,5.50
2017-11-18T03:22:24.875Z,6.50
2017-11-18T03:23:24.854Z,6.30
2017-11-18T03:24:24.824Z,5.90
2017-11-18T03:25:24.803Z,6.80
2017-11-18T03:26:24.778Z,6.30
2017-11-18T03:27:24.753Z,6.20
2017-11-18T03:28:24.729Z,6.30
2017-11-18T03:29:24.705Z,6.40
2017-11-18T03:30:24.684Z,6.10
2017-11-18T03:31:24.658Z,5.90
2017-11-18T03:32:24.631Z,6.40
2017-11-18T03:33:24.606Z,6.30
2017-11-18T03:34:24.582Z,5.80
2017-11-18T03:35:24.557Z,6.40
2017-11-18T03:36:24.534Z,5.90
2017-11-18T03:37:24.510Z,6.00
2017-11-18T03:38:24.493Z,5.60
2017-11-18T03:39:24.460Z,5.80
2017-11-18T03:40:24.435Z,5.40
2017-11-18T03:41:24.411Z,5.90
2017-11-18T03:42:24.386Z,6.60
2017-11-18T03:43:24.363Z,5.60
2017-11-18T03:44:24.338Z,5.80
2017-11-18T03:45:24.310Z,5.80
2017-11-18T03:46:24.290Z,5.70
2017-11-18T03:47:24.267Z,5.80
2017-11-18T03:48:24.239Z,6.80
2017-11-18T03:49:24.214Z,6.00
2017-11-18T03:50:24.190Z,5.80
2017-11-18T03:51:24.167Z,5.90
2017-11-18T03:52:24.147Z,5.40
2017-11-18T03:53:24.118Z,5.70
2017-11-18T03:54:24.099Z,6.10
2017-11-18T03:55:24.069Z,6.30
2017-11-18T03:56:24.044Z,6.10
2017-11-18T03:57:24.021Z,5.90
2017-11-18T03:58:23.994Z,5.80
2017-11-18T03:59:23.973Z,6.20
2017-11-18T04:00:23.948Z,5.90
2017-11-18T04:01:23.921Z,5.80
2017-11-18T04:02:23.897Z,5.70
2017-11-18T04:03:23.874Z,6.10
2017-11-18T04:04:23.847Z,5.50
2017-11-18T04:05:23.833Z,5.50
2017-11-18T04:06:23.821Z,5.90
2017-11-18T04:07:23.778Z,5.30
2017-11-18T04:08:23.752Z,5.60
2017-11-18T04:09:23.728Z,5.80
2017-11-18T04:10:23.705Z,5.40
2017-11-18T04:11:23.678Z,5.80
2017-11-18T04:12:23.651Z,6.50
2017-11-18T04:13:23.631Z,6.00
2017-11-18T04:14:23.612Z,5.60
2017-11-18T04:15:23.583Z,5.70
2017-11-18T04:16:23.556Z,5.80
2017-11-18T04:17:23.533Z,5.50
2017-11-18T04:18:23.509Z,5.30
2017-11-18T04:19:23.484Z,5.50
2017-11-18T04:20:23.459Z,6.90
2017-11-18T04:21:23.435Z,6.10
2017-11-18T04:22:23.414Z,5.90
2017-11-18T04:23:23.387Z,5.50
2017-11-18T04:24:23.369Z,6.30
2017-11-18T04:25:23.339Z,5.60
2017-11-18T04:26:23.312Z,5.60
2017-11-18T04:27:23.289Z,5.30
2017-11-18T04:28:23.264Z,5.20
2017-11-18T04:29:23.245Z,5.70
2017-11-18T04:30:23.217Z,6.00
2017-11-18T04:31:23.191Z,5.60
2017-11-18T04:32:23.167Z,5.40
2017-11-18T04:33:23.142Z,6.30
2017-11-18T04:34:23.119Z,5.90
2017-11-18T04:35:23.101Z,6.10
2017-11-18T04:36:23.073Z,5.60
2017-11-18T04:37:23.045Z,5.90
2017-11-18T04:38:23.021Z,6.20
2017-11-18T04:39:22.995Z,6.40
2017-11-18T04:40:22.973Z,5.40
2017-11-18T04:41:22.948Z,5.50
2017-11-18T04:42:22.966Z,5.70
2017-11-18T04:43:22.900Z,5.20
2017-11-18T04:44:22.876Z,5.80
2017-11-18T04:45:22.850Z,5.80
2017-11-18T04:46:22.829Z,5.30
2017-11-18T04:47:22.803Z,5.20
2017-11-18T04:48:22.779Z,5.60
2017-11-18T04:49:22.754Z,5.70
2017-11-18T04:50:22.730Z,5.30
2017-11-18T04:51:22.707Z,5.70
2017-11-18T04:52:22.681Z,5.50
2017-11-18T04:53:22.657Z,5.40
2017-11-18T04:54:22.632Z,6.00
2017-11-18T04:55:22.609Z,5.70
2017-11-18T04:56:22.583Z,5.00
2017-11-18T04:57:22.564Z,5.50
2017-11-18T04:58:22.536Z,5.40
2017-11-18T04:59:22.512Z,5.40
2017-11-18T05:00:22.486Z,5.70
2017-11-18T05:01:22.458Z,5.40
2017-11-18T05:02:22.438Z,6.20
2017-11-18T05:03:22.415Z,5.70
2017-11-18T05:04:22.389Z,5.50
2017-11-18T05:05:22.366Z,5.90
2017-11-18T05:06:22.342Z,5.60
2017-11-18T05:07:22.318Z,6.00
2017-11-18T05:08:22.301Z,6.60
2017-11-18T05:09:22.268Z,5.00
2017-11-18T05:10:22.245Z,5.60
2017-11-18T05:11:22.221Z,6.60
2017-11-18T05:12:22.193Z,5.20
2017-11-18T05:13:22.172Z,5.80
2017-11-18T05:14:22.147Z,5.50
2017-11-18T05:15:22.124Z,5.20
2017-11-18T05:16:22.098Z,5.10
2017-11-18T05:17:22.075Z,5.60
2017-11-18T05:18:22.050Z,5.70
2017-11-18T05:19:22.027Z,5.60
2017-11-18T05:20:22.000Z,5.90
2017-11-18T05:21:21.978Z,5.50
2017-11-18T05:22:21.952Z,5.70
2017-11-18T05:23:21.930Z,5.70
2017-11-18T05:24:21.905Z,5.40
2017-11-18T05:25:21.879Z,6.00
2017-11-18T05:26:21.861Z,5.30
2017-11-18T05:27:21.839Z,5.70
2017-11-18T05:28:21.805Z,5.80
2017-11-18T05:29:21.781Z,6.90
2017-11-18T05:30:21.766Z,5.80
2017-11-18T05:31:21.733Z,6.30
2017-11-18T05:32:21.708Z,5.60
2017-11-18T05:33:21.691Z,6.00
2017-11-18T05:34:21.660Z,6.20
2017-11-18T05:35:21.639Z,5.80
2017-11-18T05:36:21.611Z,5.60
2017-11-18T05:37:21.586Z,5.70
2017-11-18T05:38:21.563Z,5.90
2017-11-18T05:39:21.536Z,5.60
2017-11-18T05:40:21.515Z,5.70
2017-11-18T05:41:21.490Z,5.80
2017-11-18T05:42:21.468Z,5.90
2017-11-18T05:43:21.441Z,5.90
2017-11-18T05:44:21.423Z,6.50
2017-11-18T05:45:21.392Z,6.10
2017-11-18T05:46:21.368Z,5.80
2017-11-18T05:47:21.353Z,5.70
2017-11-18T05:48:21.319Z,6.20
2017-11-18T05:49:21.296Z,6.60
2017-11-18T05:50:21.271Z,6.20
2017-11-18T05:51:21.247Z,6.40
2017-11-18T05:52:21.222Z,5.80
2017-11-18T05:53:21.198Z,5.80
2017-11-18T05:54:21.174Z,7.00
2017-11-18T05:55:21.154Z,7.00
2017-11-18T05:56:21.125Z,6.80
2017-11-18T05:57:21.101Z,6.00
2017-11-18T05:58:21.077Z,6.30
2017-11-18T05:59:21.055Z,6.00
2017-11-18T06:00:21.027Z,6.40
2017-11-18T06:01:21.004Z,6.20
2017-11-18T06:02:20.981Z,6.40
2017-11-18T06:03:20.956Z,5.70
2017-11-18T06:04:20.939Z,5.90
2017-11-18T06:05:20.907Z,5.70
2017-11-18T06:06:20.888Z,5.50
2017-11-18T06:07:20.859Z,6.30
2017-11-18T06:08:20.834Z,5.90
2017-11-18T06:09:20.809Z,6.00
2017-11-18T06:10:20.785Z,5.80
2017-11-18T06:11:20.761Z,6.90
2017-11-18T06:12:20.737Z,6.30
2017-11-18T06:13:20.712Z,6.20
2017-11-18T06:14:20.706Z,6.30
2017-11-18T06:15:20.665Z,6.40
2017-11-18T06:16:20.640Z,6.10
2017-11-18T06:17:20.616Z,6.50
2017-11-18T06:18:20.593Z,6.60
2017-11-18T06:19:20.570Z,6.20
2017-11-18T06:20:20.543Z,6.30
2017-11-18T06:21:20.518Z,7.10
2017-11-18T06:22:20.494Z,6.70
2017-11-18T06:23:20.471Z,6.50
2017-11-18T06:24:20.448Z,6.20
2017-11-18T06:25:20.423Z,6.80
2017-11-18T06:26:20.397Z,6.90
2017-11-18T06:27:20.375Z,6.90
2017-11-18T06:28:20.349Z,7.30
2017-11-18T06:29:20.325Z,6.50
2017-11-18T06:30:20.302Z,6.40
2017-11-18T06:31:20.277Z,6.80
2017-11-18T06:32:20.252Z,6.50
2017-11-18T06:33:20.228Z,7.10
2017-11-18T06:34:20.203Z,8.00
2017-11-18T06:35:20.179Z,7.40
2017-11-18T06:36:20.161Z,6.40
2017-11-18T06:37:20.130Z,6.40
2017-11-18T06:38:20.106Z,6.90
2017-11-18T06:39:20.082Z,7.50
2017-11-18T06:40:20.059Z,6.80
2017-11-18T06:41:20.032Z,7.00
2017-11-18T06:42:20.010Z,7.00
2017-11-18T06:43:19.985Z,7.30
2017-11-18T06:44:19.960Z,6.80
2017-11-18T06:45:19.975Z,7.00
2017-11-18T06:46:19.913Z,6.60
2017-11-18T06:47:19.890Z,6.90
2017-11-18T06:48:19.865Z,6.90
2017-11-18T06:49:19.840Z,6.90
2017-11-18T06:50:19.816Z,6.90
2017-11-18T06:51:19.791Z,6.10
2017-11-18T06:52:19.768Z,7.50
2017-11-18T06:53:19.743Z,6.50
2017-11-18T06:54:19.721Z,7.10
2017-11-18T06:55:19.745Z,6.90
2017-11-18T06:56:19.671Z,6.70
2017-11-18T06:57:19.652Z,7.10
2017-11-18T06:58:19.623Z,7.80
2017-11-18T06:59:19.599Z,6.40
2017-11-18T07:00:19.574Z,7.30
2017-11-18T07:01:19.550Z,7.10
2017-11-18T07:02:19.527Z,6.70
2017-11-18T07:03:19.502Z,6.90
2017-11-18T07:04:19.477Z,7.00
2017-11-18T07:05:19.490Z,7.20
2017-11-18T07:06:19.435Z,7.60
2017-11-18T07:07:19.406Z,7.30
2017-11-18T07:08:19.381Z,7.00
2017-11-18T07:09:19.358Z,7.00
2017-11-18T07:10:19.332Z,7.10
2017-11-18T07:11:19.308Z,7.30
2017-11-18T07:12:19.284Z,6.90
2017-11-18T07:13:19.260Z,7.50
2017-11-18T07:14:19.237Z,7.00
2017-11-18T07:15:19.213Z,6.60
2017-11-18T07:16:19.189Z,6.30
2017-11-18T07:17:19.163Z,6.90
2017-11-18T07:18:19.141Z,7.30
2017-11-18T07:19:19.116Z,6.90
2017-11-18T07:20:19.138Z,6.80
2017-11-18T07:21:19.066Z,7.10
2017-11-18T07:22:19.042Z,6.70
2017-11-18T07:23:19.019Z,7.00
2017-11-18T07:24:18.999Z,7.20
2017-11-18T07:25:18.971Z,6.50
2017-11-18T07:26:18.946Z,7.20
2017-11-18T07:27:18.924Z,7.30
2017-11-18T07:28:18.898Z,7.00
2017-11-18T07:29:18.873Z,7.00
2017-11-18T07:30:18.850Z,6.50
2017-11-18T07:31:18.825Z,7.90
2017-11-18T07:32:18.801Z,6.80
2017-11-18T07:33:18.775Z,7.40
2017-11-18T07:34:18.753Z,6.90
2017-11-18T07:35:18.729Z,6.70
2017-11-18T07:36:18.705Z,7.10
2017-11-18T07:37:18.682Z,7.10
2017-11-18T07:38:18.657Z,7.20
2017-11-18T07:39:18.634Z,6.90
2017-11-18T07:40:18.608Z,6.90
2017-11-18T07:41:18.583Z,7.10
2017-11-18T07:42:18.560Z,7.80
2017-11-18T07:43:18.536Z,7.00
2017-11-18T07:44:18.510Z,7.00
2017-11-18T07:45:18.488Z,7.70
2017-11-18T07:46:18.472Z,6.90
2017-11-18T07:47:18.440Z,7.40
2017-11-18T07:48:18.425Z,7.00
2017-11-18T07:49:18.390Z,7.10
2017-11-18T07:50:18.366Z,6.60
2017-11-18T07:51:18.343Z,6.70
2017-11-18T07:52:18.319Z,7.20
2017-11-18T07:53:18.295Z,7.80
2017-11-18T07:54:18.274Z,7.10
2017-11-18T07:55:18.246Z,7.60
2017-11-18T07:56:18.222Z,6.90
2017-11-18T07:57:18.200Z,7.40
2017-11-18T07:58:18.174Z,6.70
2017-11-18T07:59:18.150Z,7.50
2017-11-18T08:00:18.129Z,6.70
2017-11-18T08:01:18.101Z,7.40
2017-11-18T08:02:18.078Z,7.40
2017-11-18T08:03:18.060Z,6.90
2017-11-18T08:04:18.039Z,7.70
2017-11-18T08:05:18.006Z,7.30
2017-11-18T08:06:17.982Z,7.50
2017-11-18T08:07:17.971Z,7.30
2017-11-18T08:08:17.944Z,7.30
2017-11-18T08:09:17.904Z,7.80
2017-11-18T08:10:17.905Z,6.90
2017-11-18T08:11:17.900Z,7.20
2017-11-18T08:12:17.839Z,8.00
2017-11-18T08:13:17.815Z,8.30
2017-11-18T08:14:17.799Z,7.50
2017-11-18T08:15:17.767Z,7.20
2017-11-18T08:16:17.748Z,7.20
2017-11-18T08:17:17.720Z,7.80
2017-11-18T08:18:17.690Z,7.10
2017-11-18T08:19:17.679Z,7.50
2017-11-18T08:20:17.650Z,7.00
2017-11-18T08:21:17.622Z,7.50
2017-11-18T08:22:17.600Z,7.10
2017-11-18T08:23:17.588Z,7.30
2017-11-18T08:24:17.551Z,7.00
2017-11-18T08:25:17.529Z,6.70
2017-11-18T08:26:17.504Z,7.40
2017-11-18T08:27:17.484Z,7.00
2017-11-18T08:28:17.455Z,7.40
2017-11-18T08:29:17.431Z,7.40
2017-11-18T08:30:17.407Z,6.20
2017-11-18T08:31:17.385Z,7.40
2017-11-18T08:32:17.359Z,7.10
2017-11-18T08:33:17.338Z,7.10
2017-11-18T08:34:17.312Z,7.10
2017-11-18T08:35:17.289Z,7.00
2017-11-18T08:36:17.264Z,6.40
2017-11-18T08:37:17.241Z,6.90
2017-11-18T08:38:17.215Z,7.30
2017-11-18T08:39:17.194Z,6.70
2017-11-18T08:40:17.167Z,7.00
2017-11-18T08:41:17.147Z,6.30
2017-11-18T08:42:17.122Z,6.90
2017-11-18T08:43:17.098Z,6.30
2017-11-18T08:44:17.073Z,7.00
2017-11-18T08:45:17.050Z,6.80
2017-11-18T08:46:17.025Z,6.50
2017-11-18T08:47:17.003Z,7.60
2017-11-18T08:48:16.976Z,6.00
2017-11-18T08:49:16.965Z,6.80
2017-11-18T08:50:16.966Z,6.40
2017-11-18T08:51:16.907Z,6.40
2017-11-18T08:52:16.881Z,6.70
2017-11-18T08:53:16.862Z,6.40
2017-11-18T08:54:16.833Z,7.10
2017-11-18T08:55:16.811Z,6.40
2017-11-18T08:56:16.787Z,6.60
2017-11-18T08:57:16.762Z,6.50
2017-11-18T08:58:16.737Z,6.60
2017-11-18T08:59:16.716Z,5.90
2017-11-18T09:00:16.690Z,5.80
2017-11-18T09:01:16.666Z,6.20
2017-11-18T09:02:16.642Z,7.00
2017-11-18T09:03:16.623Z,6.60
2017-11-18T09:04:16.595Z,6.50
2017-11-18T09:05:16.574Z,6.40
2017-11-18T09:06:16.548Z,6.20
2017-11-18T09:07:16.524Z,6.10
2017-11-18T09:08:16.500Z,5.50
2017-11-18T09:09:16.476Z,6.20
2017-11-18T09:10:16.451Z,7.20
2017-11-18T09:11:16.434Z,6.20
2017-11-18T09:12:16.405Z,5.60
2017-11-18T09:13:16.382Z,5.30
2017-11-18T09:14:16.358Z,6.30
2017-11-18T09:15:16.335Z,6.40
2017-11-18T09:16:16.311Z,6.20
2017-11-18T09:17:16.286Z,5.40
2017-11-18T09:18:16.267Z,5.60
2017-11-18T09:19:16.266Z,6.00
2017-11-18T09:20:16.237Z,6.40
2017-11-18T09:21:16.211Z,6.40
2017-11-18T09:22:16.185Z,6.10
2017-11-18T09:23:16.145Z,6.00
2017-11-18T09:24:16.119Z,5.60
2017-11-18T09:25:16.096Z,6.00
2017-11-18T09:26:16.073Z,5.90
2017-11-18T09:27:16.051Z,6.40
2017-11-18T09:28:16.730Z,6.00
2017-11-18T09:29:16.005Z,6.10
2017-11-18T09:30:16.264Z,6.00
2017-11-18T09:31:16.075Z,5.80
2017-11-18T09:32:15.930Z,6.50
2017-11-18T09:33:15.905Z,5.90
2017-11-18T09:34:15.883Z,6.40
2017-11-18T09:35:15.862Z,5.40
2017-11-18T09:36:15.837Z,6.10
2017-11-18T09:37:15.811Z,6.00
2017-11-18T09:38:15.788Z,5.90
2017-11-18T09:39:15.775Z,7.40
2017-11-18T09:40:15.742Z,6.00
2017-11-18T09:41:15.717Z,5.90
2017-11-18T09:42:15.695Z,6.60
2017-11-18T09:43:15.673Z,6.60
2017-11-18T09:44:15.648Z,5.70
2017-11-18T09:45:15.624Z,6.50
2017-11-18T09:46:15.601Z,6.20
2017-11-18T09:47:15.577Z,6.30
2017-11-18T09:48:15.552Z,6.20
2017-11-18T09:49:15.531Z,5.80
2017-11-18T09:50:15.506Z,6.60
2017-11-18T09:51:15.483Z,5.40
2017-11-18T09:52:15.458Z,5.80
2017-11-18T09:53:15.437Z,6.50
2017-11-18T09:54:15.936Z,5.90
2017-11-18T09:55:20.927Z,6.20
2017-11-18T09:56:15.365Z,6.20
2017-11-18T09:57:15.342Z,6.40
2017-11-18T09:58:15.320Z,5.60
2017-11-18T09:59:15.296Z,6.60
2017-11-18T10:00:15.271Z,6.00
2017-11-18T10:01:15.249Z,5.90
2017-11-18T10:02:15.224Z,5.60
2017-11-18T10:03:15.213Z,5.80
2017-11-18T10:04:15.179Z,5.80
2017-11-18T10:05:15.154Z,5.90
2017-11-18T10:06:16.312Z,5.90
2017-11-18T10:07:15.113Z,5.50
2017-11-18T10:08:15.086Z,6.00
2017-11-18T10:09:15.062Z,5.70
2017-11-18T10:10:15.043Z,5.70
2017-11-18T10:11:15.016Z,5.70
2017-11-18T10:12:14.991Z,6.30
2017-11-18T10:13:14.969Z,5.30
2017-11-18T10:14:14.943Z,5.90
2017-11-18T10:15:14.928Z,6.40
2017-11-18T10:16:14.897Z,5.90
2017-11-18T10:17:14.876Z,6.00
2017-11-18T10:18:14.852Z,6.30
2017-11-18T10:19:14.830Z,5.10
2017-11-18T10:20:14.807Z,5.40
2017-11-18T10:21:14.781Z,6.00
2017-11-18T10:22:14.760Z,5.60
2017-11-18T10:23:14.736Z,5.90
2017-11-18T10:24:14.712Z,6.00
2017-11-18T10:25:14.689Z,5.30
2017-11-18T10:26:14.667Z,5.90
2017-11-18T10:27:14.642Z,6.70
2017-11-18T10:28:14.618Z,6.40
2017-11-18T10:29:14.595Z,5.30
2017-11-18T10:30:16.070Z,6.00
2017-11-18T10:31:14.562Z,5.50
2017-11-18T10:32:14.526Z,5.70
2017-11-18T10:33:14.503Z,5.70
2017-11-18T10:34:14.480Z,5.60
2017-11-18T10:35:14.458Z,6.10
2017-11-18T10:36:14.433Z,6.00
2017-11-18T10:37:14.412Z,6.00
2017-11-18T10:38:14.390Z,5.80
2017-11-18T10:39:14.365Z,5.90
2017-11-18T10:40:14.342Z,6.00
2017-11-18T10:41:14.320Z,5.90
2017-11-18T10:42:14.295Z,6.50
2017-11-18T10:43:14.274Z,5.50
2017-11-18T10:44:14.249Z,5.90
2017-11-18T10:45:14.228Z,5.80
2017-11-18T10:46:14.205Z,5.70
2017-11-18T10:47:14.182Z,5.70
2017-11-18T10:48:14.162Z,6.40
2017-11-18T10:49:14.135Z,5.50
2017-11-18T10:50:14.113Z,6.30
2017-11-18T10:51:14.089Z,6.00
2017-11-18T10:52:14.067Z,6.40
2017-11-18T10:53:14.044Z,6.10
2017-11-18T10:54:14.024Z,5.40
2017-11-18T10:55:13.998Z,5.30
2017-11-18T10:56:13.976Z,6.00
2017-11-18T10:57:13.959Z,5.60
2017-11-18T10:58:13.930Z,6.20
2017-11-18T10:59:13.907Z,5.80
2017-11-18T11:00:13.884Z,6.30
2017-11-18T11:01:13.861Z,6.00
2017-11-18T11:02:13.839Z,5.50
2017-11-18T11:03:13.815Z,5.70
2017-11-18T11:04:13.792Z,6.10
2017-11-18T11:05:13.770Z,6.30
2017-11-18T11:06:13.778Z,6.00
2017-11-18T11:07:13.725Z,6.40
2017-11-18T11:08:13.702Z,6.30
2017-11-18T11:09:13.678Z,6.00
2017-11-18T11:10:13.656Z,6.40
2017-11-18T11:11:13.633Z,6.30
2017-11-18T11:12:13.609Z,6.40
2017-11-18T11:13:13.588Z,6.10
2017-11-18T11:14:13.564Z,7.10
2017-11-18T11:15:13.546Z,6.50
2017-11-18T11:16:13.518Z,6.10
2017-11-18T11:17:13.497Z,6.20
2017-11-18T11:18:13.473Z,6.60
2017-11-18T11:19:13.453Z,6.60
2017-11-18T11:20:13.431Z,6.40
2017-11-18T11:21:13.406Z,6.90
2017-11-18T11:22:13.382Z,7.00
2017-11-18T11:23:13.359Z,6.80
2017-11-18T11:24:13.336Z,6.80
2017-11-18T11:25:13.324Z,6.10
2017-11-18T11:26:13.292Z,6.00
2017-11-18T11:27:13.269Z,6.60
2017-11-18T11:28:13.244Z,6.00
2017-11-18T11:29:13.222Z,5.70
2017-11-18T11:30:13.199Z,5.70
2017-11-18T11:31:13.177Z,6.50
2017-11-18T11:32:13.155Z,6.60
2017-11-18T11:33:13.136Z,5.90
2017-11-18T11:34:13.109Z,6.20
2017-11-18T11:35:13.084Z,6.40
2017-11-18T11:36:13.062Z,5.80
2017-11-18T11:37:13.040Z,6.10
2017-11-18T11:38:13.015Z,6.10
2017-11-18T11:39:12.994Z,5.60
2017-11-18T11:40:12.971Z,5.90
2017-11-18T11:41:12.950Z,5.90
2017-11-18T11:42:12.927Z,5.40
2017-11-18T11:43:12.905Z,6.00
2017-11-18T11:44:12.884Z,4.80
2017-11-18T11:45:12.864Z,5.70
2017-11-18T11:46:12.842Z,6.40
2017-11-18T11:47:12.824Z,5.50
2017-11-18T11:48:12.799Z,6.20
2017-11-18T11:49:12.780Z,5.20
2017-11-18T11:50:12.758Z,5.80
2017-11-18T11:51:12.739Z,6.00
2017-11-18T11:52:12.717Z,5.60
2017-11-18T11:53:12.727Z,5.80
2017-11-18T11:54:12.676Z,5.90
2017-11-18T11:55:12.656Z,5.40
2017-11-18T11:56:12.632Z,6.10
2017-11-18T11:57:12.613Z,5.50
2017-11-18T11:58:12.593Z,5.50
2017-11-18T11:59:12.573Z,6.10
2017-11-18T12:00:12.553Z,6.00
2017-11-18T12:01:12.532Z,6.00
2017-11-18T12:02:12.511Z,6.80
2017-11-18T12:03:12.492Z,5.80
2017-11-18T12:04:12.480Z,6.00
2017-11-18T12:05:12.455Z,6.20
2017-11-18T12:06:12.430Z,6.20
2017-11-18T12:07:12.432Z,6.40
2017-11-18T12:08:12.388Z,6.20
2017-11-18T12:09:12.411Z,6.30
2017-11-18T12:10:12.441Z,6.00
2017-11-18T12:11:12.322Z,6.00
2017-11-18T12:12:12.326Z,6.90
2017-11-18T12:13:12.278Z,6.50
2017-11-18T12:14:12.256Z,6.50
2017-11-18T12:15:12.234Z,6.40
2017-11-18T12:16:12.214Z,6.80
2017-11-18T12:17:12.192Z,7.60
2017-11-18T12:18:12.173Z,7.20
2017-11-18T12:19:12.246Z,8.50
2017-11-18T12:20:12.221Z,8.10
2017-11-18T12:21:12.197Z,8.80
2017-11-18T12:22:13.176Z,8.10
2017-11-18T12:23:13.654Z,8.60
2017-11-18T12:24:12.665Z,9.40
2017-11-18T12:25:12.012Z,9.90
2017-11-18T12:26:11.988Z,9.10
2017-11-18T12:27:11.966Z,8.30
2017-11-18T12:28:11.942Z,8.90
2017-11-18T12:29:11.921Z,9.60
2017-11-18T12:30:11.896Z,9.30
2017-11-18T12:31:11.875Z,8.50
2017-11-18T12:32:11.855Z,8.80
2017-11-18T12:33:11.830Z,10.30
2017-11-18T12:34:11.803Z,9.40
2017-11-18T12:35:11.780Z,9.50
2017-11-18T12:36:11.756Z,9.20
2017-11-18T12:37:11.733Z,9.40
2017-11-18T12:38:11.709Z,9.70
2017-11-18T12:39:11.685Z,8.70
2017-11-18T12:40:11.722Z,9.00
2017-11-18T12:41:11.638Z,9.50
2017-11-18T12:42:11.610Z,8.90
2017-11-18T12:43:11.591Z,9.40
2017-11-18T12:44:11.640Z,9.10
2017-11-18T12:45:11.563Z,9.40
2017-11-18T12:46:11.617Z,8.50
2017-11-18T12:47:11.596Z,9.20
2017-11-18T12:48:11.479Z,8.70
2017-11-18T12:49:11.449Z,9.00
2017-11-18T12:50:11.426Z,9.50
2017-11-18T12:51:11.407Z,9.60
2017-11-18T12:52:11.379Z,8.40
2017-11-18T12:53:11.354Z,8.60
2017-11-18T12:54:11.331Z,8.70
2017-11-18T12:55:11.308Z,7.70
2017-11-18T12:56:11.283Z,8.20
2017-11-18T12:57:11.259Z,7.60
2017-11-18T12:58:11.237Z,7.60
2017-11-18T12:59:11.216Z,8.40
2017-11-18T13:00:11.188Z,7.60
2017-11-18T13:01:11.165Z,7.70
2017-11-18T13:02:11.142Z,8.10
2017-11-18T13:03:11.119Z,8.50
2017-11-18T13:04:11.094Z,8.00
2017-11-18T13:05:11.072Z,8.50
2017-11-18T13:06:11.046Z,8.40
2017-11-18T13:07:11.022Z,8.70
2017-11-18T13:08:10.997Z,8.00
2017-11-18T13:09:10.976Z,7.30
2017-11-18T13:10:10.951Z,8.40
2017-11-18T13:11:10.928Z,7.80
2017-11-18T13:12:10.904Z,8.10
2017-11-18T13:13:10.880Z,8.30
2017-11-18T13:14:10.856Z,8.80
2017-11-18T13:15:10.835Z,7.40
2017-11-18T13:16:10.809Z,7.20
2017-11-18T13:17:10.786Z,7.90
2017-11-18T13:18:10.763Z,7.90